Terminal Aerodrome Forecast
Issued by NWS

Home | Current Version | Previous Version | Text Only | Print | Product List | Glossary On
Versions: 1 2 3 4 5 6 7 8 9 10 11 12 13 14 15 16 17 18 19 20 21 22 23 24 25 26
000
FTUS45 KCYS 280533
TAFLAR
TAF
KLAR 280533Z 2806/2906 22008KT P6SM SCT120
     FM281800 28011KT P6SM VCTS SCT070CB BKN100
      TEMPO 2821/2824 5SM -TSRA BKN040CB OVC080=

USA.gov is the U.S. government's official web portal to all federal, state and local government web resources and services.